sensor_id;sensor_type;location;lat;lon;timestamp;P1;durP1;ratioP1;P2;durP2;ratioP2
12218;SDS011;6172;42.646;23.344;2023-04-30T00:00:05;11.13;;;6.67;;
12218;SDS011;6172;42.646;23.344;2023-04-30T00:02:34;9.33;;;5.97;;
12218;SDS011;6172;42.646;23.344;2023-04-30T00:05:00;17.47;;;7.43;;
12218;SDS011;6172;42.646;23.344;2023-04-30T00:07:27;10.67;;;6.10;;
12218;SDS011;6172;42.646;23.344;2023-04-30T00:09:54;11.20;;;6.37;;
12218;SDS011;6172;42.646;23.344;2023-04-30T00:12:22;10.60;;;6.87;;
12218;SDS011;6172;42.646;23.344;2023-04-30T00:14:49;14.40;;;6.77;;
12218;SDS011;6172;42.646;23.344;2023-04-30T00:17:16;11.17;;;7.10;;
12218;SDS011;6172;42.646;23.344;2023-04-30T00:19:43;13.93;;;7.00;;
12218;SDS011;6172;42.646;23.344;2023-04-30T00:22:10;9.60;;;6.70;;
12218;SDS011;6172;42.646;23.344;2023-04-30T00:24:37;11.10;;;6.83;;
12218;SDS011;6172;42.646;23.344;2023-04-30T00:27:03;10.00;;;6.57;;
12218;SDS011;6172;42.646;23.344;2023-04-30T00:29:31;10.27;;;7.10;;
12218;SDS011;6172;42.646;23.344;2023-04-30T00:31:58;11.17;;;6.50;;
12218;SDS011;6172;42.646;23.344;2023-04-30T00:34:25;9.23;;;5.93;;
12218;SDS011;6172;42.646;23.344;2023-04-30T00:36:52;11.17;;;6.10;;
12218;SDS011;6172;42.646;23.344;2023-04-30T00:39:19;9.77;;;6.30;;
12218;SDS011;6172;42.646;23.344;2023-04-30T00:41:45;9.73;;;5.77;;
12218;SDS011;6172;42.646;23.344;2023-04-30T00:44:12;14.20;;;6.27;;
12218;SDS011;6172;42.646;23.344;2023-04-30T00:46:40;10.57;;;6.30;;
12218;SDS011;6172;42.646;23.344;2023-04-30T00:49:07;8.13;;;6.00;;
12218;SDS011;6172;42.646;23.344;2023-04-30T00:51:34;8.17;;;5.73;;
12218;SDS011;6172;42.646;23.344;2023-04-30T00:54:02;10.63;;;6.10;;
12218;SDS011;6172;42.646;23.344;2023-04-30T00:56:29;10.90;;;5.90;;
12218;SDS011;6172;42.646;23.344;2023-04-30T00:58:57;11.00;;;6.23;;
12218;SDS011;6172;42.646;23.344;2023-04-30T01:01:24;12.77;;;5.97;;
12218;SDS011;6172;42.646;23.344;2023-04-30T01:03:54;9.57;;;6.63;;
12218;SDS011;6172;42.646;23.344;2023-04-30T01:06:21;12.50;;;6.20;;
12218;SDS011;6172;42.646;23.344;2023-04-30T01:08:48;11.40;;;7.03;;
12218;SDS011;6172;42.646;23.344;2023-04-30T01:11:16;15.60;;;6.53;;
12218;SDS011;6172;42.646;23.344;2023-04-30T01:13:52;12.07;;;7.40;;
12218;SDS011;6172;42.646;23.344;2023-04-30T01:16:29;8.17;;;6.47;;
12218;SDS011;6172;42.646;23.344;2023-04-30T01:19:04;10.40;;;6.53;;
12218;SDS011;6172;42.646;23.344;2023-04-30T01:21:36;15.20;;;6.80;;
12218;SDS011;6172;42.646;23.344;2023-04-30T01:24:20;10.90;;;6.03;;
12218;SDS011;6172;42.646;23.344;2023-04-30T01:27:06;11.87;;;6.80;;
12218;SDS011;6172;42.646;23.344;2023-04-30T01:29:45;11.17;;;7.07;;
12218;SDS011;6172;42.646;23.344;2023-04-30T01:32:13;11.50;;;6.93;;
12218;SDS011;6172;42.646;23.344;2023-04-30T01:34:40;13.27;;;6.87;;
12218;SDS011;6172;42.646;23.344;2023-04-30T01:37:11;10.47;;;6.97;;
12218;SDS011;6172;42.646;23.344;2023-04-30T01:39:49;8.90;;;6.13;;
12218;SDS011;6172;42.646;23.344;2023-04-30T01:42:30;9.40;;;6.27;;
12218;SDS011;6172;42.646;23.344;2023-04-30T01:45:14;10.03;;;6.73;;
12218;SDS011;6172;42.646;23.344;2023-04-30T01:47:56;12.00;;;7.20;;
12218;SDS011;6172;42.646;23.344;2023-04-30T01:50:36;9.93;;;6.67;;
12218;SDS011;6172;42.646;23.344;2023-04-30T01:53:08;9.57;;;6.33;;
12218;SDS011;6172;42.646;23.344;2023-04-30T01:55:40;10.97;;;6.67;;
12218;SDS011;6172;42.646;23.344;2023-04-30T01:58:10;9.97;;;5.83;;
12218;SDS011;6172;42.646;23.344;2023-04-30T02:00:40;9.73;;;6.60;;
12218;SDS011;6172;42.646;23.344;2023-04-30T02:03:06;8.43;;;6.47;;
12218;SDS011;6172;42.646;23.344;2023-04-30T02:05:33;10.97;;;6.50;;
12218;SDS011;6172;42.646;23.344;2023-04-30T02:08:00;10.37;;;6.50;;
12218;SDS011;6172;42.646;23.344;2023-04-30T02:10:27;9.73;;;6.00;;
12218;SDS011;6172;42.646;23.344;2023-04-30T02:12:54;12.13;;;7.10;;
12218;SDS011;6172;42.646;23.344;2023-04-30T02:15:21;12.57;;;6.60;;
12218;SDS011;6172;42.646;23.344;2023-04-30T02:17:49;14.53;;;7.23;;
12218;SDS011;6172;42.646;23.344;2023-04-30T02:20:16;14.13;;;7.40;;
12218;SDS011;6172;42.646;23.344;2023-04-30T02:22:43;9.47;;;6.13;;
12218;SDS011;6172;42.646;23.344;2023-04-30T02:25:10;15.23;;;7.07;;
12218;SDS011;6172;42.646;23.344;2023-04-30T02:27:38;12.57;;;6.67;;
12218;SDS011;6172;42.646;23.344;2023-04-30T02:30:05;13.60;;;6.40;;
12218;SDS011;6172;42.646;23.344;2023-04-30T02:32:33;14.07;;;7.87;;
12218;SDS011;6172;42.646;23.344;2023-04-30T02:35:01;8.60;;;6.23;;
12218;SDS011;6172;42.646;23.344;2023-04-30T02:37:28;13.60;;;6.60;;
12218;SDS011;6172;42.646;23.344;2023-04-30T02:39:55;15.37;;;7.23;;
12218;SDS011;6172;42.646;23.344;2023-04-30T02:42:22;11.60;;;6.87;;
12218;SDS011;6172;42.646;23.344;2023-04-30T02:44:49;15.03;;;6.73;;
12218;SDS011;6172;42.646;23.344;2023-04-30T02:47:16;14.63;;;6.90;;
12218;SDS011;6172;42.646;23.344;2023-04-30T02:49:43;10.60;;;6.97;;
12218;SDS011;6172;42.646;23.344;2023-04-30T02:52:11;11.57;;;6.40;;
12218;SDS011;6172;42.646;23.344;2023-04-30T02:54:38;18.43;;;8.00;;
12218;SDS011;6172;42.646;23.344;2023-04-30T02:57:05;13.27;;;7.07;;
12218;SDS011;6172;42.646;23.344;2023-04-30T02:59:32;11.23;;;6.20;;
12218;SDS011;6172;42.646;23.344;2023-04-30T03:01:58;11.03;;;6.90;;
12218;SDS011;6172;42.646;23.344;2023-04-30T03:04:25;14.70;;;6.53;;
12218;SDS011;6172;42.646;23.344;2023-04-30T03:06:52;14.13;;;6.90;;
12218;SDS011;6172;42.646;23.344;2023-04-30T03:09:21;14.90;;;6.43;;
12218;SDS011;6172;42.646;23.344;2023-04-30T03:11:48;10.10;;;6.70;;
12218;SDS011;6172;42.646;23.344;2023-04-30T03:14:14;12.43;;;6.60;;
12218;SDS011;6172;42.646;23.344;2023-04-30T03:16:41;11.73;;;7.10;;
12218;SDS011;6172;42.646;23.344;2023-04-30T03:19:08;10.80;;;6.17;;
12218;SDS011;6172;42.646;23.344;2023-04-30T03:21:35;11.73;;;6.60;;
12218;SDS011;6172;42.646;23.344;2023-04-30T03:24:02;10.60;;;6.40;;
12218;SDS011;6172;42.646;23.344;2023-04-30T03:26:30;15.13;;;6.90;;
12218;SDS011;6172;42.646;23.344;2023-04-30T03:28:57;13.87;;;7.00;;
12218;SDS011;6172;42.646;23.344;2023-04-30T03:31:25;12.47;;;6.30;;
12218;SDS011;6172;42.646;23.344;2023-04-30T03:33:52;12.20;;;6.80;;
12218;SDS011;6172;42.646;23.344;2023-04-30T03:36:18;10.60;;;6.17;;
12218;SDS011;6172;42.646;23.344;2023-04-30T03:38:49;10.50;;;6.27;;
12218;SDS011;6172;42.646;23.344;2023-04-30T03:41:16;14.33;;;7.10;;
12218;SDS011;6172;42.646;23.344;2023-04-30T03:43:45;10.40;;;6.40;;
12218;SDS011;6172;42.646;23.344;2023-04-30T03:46:12;12.53;;;6.37;;
12218;SDS011;6172;42.646;23.344;2023-04-30T03:48:38;13.03;;;6.07;;
12218;SDS011;6172;42.646;23.344;2023-04-30T03:51:05;11.00;;;6.50;;
12218;SDS011;6172;42.646;23.344;2023-04-30T03:53:33;8.70;;;5.83;;
12218;SDS011;6172;42.646;23.344;2023-04-30T03:56:00;14.67;;;6.50;;
12218;SDS011;6172;42.646;23.344;2023-04-30T03:58:28;10.87;;;6.77;;
12218;SDS011;6172;42.646;23.344;2023-04-30T04:00:56;12.03;;;6.53;;
12218;SDS011;6172;42.646;23.344;2023-04-30T04:03:23;14.20;;;7.03;;
12218;SDS011;6172;42.646;23.344;2023-04-30T04:05:50;10.77;;;7.17;;
12218;SDS011;6172;42.646;23.344;2023-04-30T04:08:16;9.93;;;6.40;;
12218;SDS011;6172;42.646;23.344;2023-04-30T04:10:43;12.17;;;7.07;;
12218;SDS011;6172;42.646;23.344;2023-04-30T04:13:10;11.80;;;6.43;;
12218;SDS011;6172;42.646;23.344;2023-04-30T04:15:37;10.07;;;6.57;;
12218;SDS011;6172;42.646;23.344;2023-04-30T04:18:05;9.77;;;6.37;;
12218;SDS011;6172;42.646;23.344;2023-04-30T04:20:32;11.17;;;6.90;;
12218;SDS011;6172;42.646;23.344;2023-04-30T04:22:59;12.47;;;6.90;;
12218;SDS011;6172;42.646;23.344;2023-04-30T04:25:26;9.13;;;7.00;;
12218;SDS011;6172;42.646;23.344;2023-04-30T04:27:53;10.73;;;7.57;;
12218;SDS011;6172;42.646;23.344;2023-04-30T04:30:20;12.73;;;8.10;;
12218;SDS011;6172;42.646;23.344;2023-04-30T04:32:47;9.03;;;6.93;;
12218;SDS011;6172;42.646;23.344;2023-04-30T04:35:19;10.23;;;7.30;;
12218;SDS011;6172;42.646;23.344;2023-04-30T04:37:46;10.77;;;7.27;;
12218;SDS011;6172;42.646;23.344;2023-04-30T04:40:13;10.90;;;6.53;;
12218;SDS011;6172;42.646;23.344;2023-04-30T04:42:40;10.63;;;7.40;;
12218;SDS011;6172;42.646;23.344;2023-04-30T04:45:07;11.03;;;8.03;;
12218;SDS011;6172;42.646;23.344;2023-04-30T04:47:35;12.77;;;7.60;;
12218;SDS011;6172;42.646;23.344;2023-04-30T04:50:02;12.10;;;7.37;;
12218;SDS011;6172;42.646;23.344;2023-04-30T04:52:30;9.73;;;7.73;;
12218;SDS011;6172;42.646;23.344;2023-04-30T04:54:57;15.37;;;8.30;;
12218;SDS011;6172;42.646;23.344;2023-04-30T04:57:24;12.87;;;8.37;;
12218;SDS011;6172;42.646;23.344;2023-04-30T04:59:51;13.07;;;7.43;;
12218;SDS011;6172;42.646;23.344;2023-04-30T05:02:17;12.97;;;7.80;;
12218;SDS011;6172;42.646;23.344;2023-04-30T05:04:45;9.73;;;7.83;;
12218;SDS011;6172;42.646;23.344;2023-04-30T05:07:14;13.87;;;8.00;;
12218;SDS011;6172;42.646;23.344;2023-04-30T05:09:43;10.20;;;8.03;;
12218;SDS011;6172;42.646;23.344;2023-04-30T05:12:10;12.63;;;8.87;;
12218;SDS011;6172;42.646;23.344;2023-04-30T05:14:37;12.47;;;8.33;;
12218;SDS011;6172;42.646;23.344;2023-04-30T05:17:04;10.87;;;8.53;;
12218;SDS011;6172;42.646;23.344;2023-04-30T05:19:31;17.67;;;9.47;;
12218;SDS011;6172;42.646;23.344;2023-04-30T05:21:58;14.20;;;8.43;;
12218;SDS011;6172;42.646;23.344;2023-04-30T05:24:26;13.77;;;8.77;;
12218;SDS011;6172;42.646;23.344;2023-04-30T05:26:55;17.77;;;8.53;;
12218;SDS011;6172;42.646;23.344;2023-04-30T05:29:22;11.23;;;7.67;;
12218;SDS011;6172;42.646;23.344;2023-04-30T05:31:49;9.50;;;6.63;;
12218;SDS011;6172;42.646;23.344;2023-04-30T05:34:16;11.57;;;7.00;;
12218;SDS011;6172;42.646;23.344;2023-04-30T05:36:43;11.13;;;7.80;;
12218;SDS011;6172;42.646;23.344;2023-04-30T05:39:09;10.70;;;7.37;;
12218;SDS011;6172;42.646;23.344;2023-04-30T05:41:36;10.70;;;8.17;;
12218;SDS011;6172;42.646;23.344;2023-04-30T05:44:05;11.80;;;8.10;;
12218;SDS011;6172;42.646;23.344;2023-04-30T05:46:32;12.13;;;8.03;;
12218;SDS011;6172;42.646;23.344;2023-04-30T05:48:59;12.30;;;8.83;;
12218;SDS011;6172;42.646;23.344;2023-04-30T05:51:26;10.57;;;8.13;;
12218;SDS011;6172;42.646;23.344;2023-04-30T05:53:53;12.77;;;8.17;;
12218;SDS011;6172;42.646;23.344;2023-04-30T05:56:21;10.57;;;8.00;;
12218;SDS011;6172;42.646;23.344;2023-04-30T05:58:49;13.47;;;8.77;;
12218;SDS011;6172;42.646;23.344;2023-04-30T06:01:18;10.70;;;8.10;;
12218;SDS011;6172;42.646;23.344;2023-04-30T06:03:45;13.20;;;8.63;;
12218;SDS011;6172;42.646;23.344;2023-04-30T06:06:12;12.23;;;8.27;;
12218;SDS011;6172;42.646;23.344;2023-04-30T06:08:39;12.27;;;8.63;;
12218;SDS011;6172;42.646;23.344;2023-04-30T06:11:09;15.30;;;8.97;;
12218;SDS011;6172;42.646;23.344;2023-04-30T06:13:37;12.60;;;8.87;;
12218;SDS011;6172;42.646;23.344;2023-04-30T06:16:04;15.87;;;8.70;;
12218;SDS011;6172;42.646;23.344;2023-04-30T06:18:33;12.80;;;8.20;;
12218;SDS011;6172;42.646;23.344;2023-04-30T06:21:00;13.67;;;8.97;;
12218;SDS011;6172;42.646;23.344;2023-04-30T06:23:27;9.73;;;8.73;;
12218;SDS011;6172;42.646;23.344;2023-04-30T06:25:54;13.17;;;8.73;;
12218;SDS011;6172;42.646;23.344;2023-04-30T06:28:21;13.60;;;9.10;;
12218;SDS011;6172;42.646;23.344;2023-04-30T06:30:48;12.33;;;8.80;;
12218;SDS011;6172;42.646;23.344;2023-04-30T06:33:15;11.80;;;8.23;;
12218;SDS011;6172;42.646;23.344;2023-04-30T06:35:44;12.03;;;8.07;;
12218;SDS011;6172;42.646;23.344;2023-04-30T06:38:11;15.47;;;9.20;;
12218;SDS011;6172;42.646;23.344;2023-04-30T06:40:38;12.67;;;8.63;;
12218;SDS011;6172;42.646;23.344;2023-04-30T06:43:05;11.90;;;8.80;;
12218;SDS011;6172;42.646;23.344;2023-04-30T06:45:32;12.87;;;8.40;;
12218;SDS011;6172;42.646;23.344;2023-04-30T06:47:59;10.47;;;8.40;;
12218;SDS011;6172;42.646;23.344;2023-04-30T06:50:26;16.83;;;9.03;;
12218;SDS011;6172;42.646;23.344;2023-04-30T06:52:54;15.60;;;9.13;;
12218;SDS011;6172;42.646;23.344;2023-04-30T06:55:21;13.67;;;9.00;;
12218;SDS011;6172;42.646;23.344;2023-04-30T06:57:49;16.83;;;9.60;;
12218;SDS011;6172;42.646;23.344;2023-04-30T07:00:16;12.43;;;8.40;;
12218;SDS011;6172;42.646;23.344;2023-04-30T07:02:43;16.27;;;9.15;;
12218;SDS011;6172;42.646;23.344;2023-04-30T07:05:11;11.95;;;8.55;;
12218;SDS011;6172;42.646;23.344;2023-04-30T07:07:38;9.98;;;6.95;;
12218;SDS011;6172;42.646;23.344;2023-04-30T07:10:10;7.80;;;6.95;;
12218;SDS011;6172;42.646;23.344;2023-04-30T07:12:37;12.95;;;8.85;;
12218;SDS011;6172;42.646;23.344;2023-04-30T07:15:04;13.23;;;8.87;;
12218;SDS011;6172;42.646;23.344;2023-04-30T07:17:32;17.30;;;8.90;;
12218;SDS011;6172;42.646;23.344;2023-04-30T07:19:59;13.83;;;8.20;;
12218;SDS011;6172;42.646;23.344;2023-04-30T07:22:26;13.57;;;8.07;;
12218;SDS011;6172;42.646;23.344;2023-04-30T07:24:53;12.37;;;7.97;;
12218;SDS011;6172;42.646;23.344;2023-04-30T07:27:22;9.70;;;8.00;;
12218;SDS011;6172;42.646;23.344;2023-04-30T07:29:50;10.10;;;7.40;;
12218;SDS011;6172;42.646;23.344;2023-04-30T07:32:17;8.83;;;6.90;;
12218;SDS011;6172;42.646;23.344;2023-04-30T07:34:44;7.83;;;6.37;;
12218;SDS011;6172;42.646;23.344;2023-04-30T07:37:11;10.23;;;6.57;;
12218;SDS011;6172;42.646;23.344;2023-04-30T07:39:38;10.70;;;6.80;;
12218;SDS011;6172;42.646;23.344;2023-04-30T07:42:05;15.53;;;7.70;;
12218;SDS011;6172;42.646;23.344;2023-04-30T07:44:35;13.47;;;7.17;;
12218;SDS011;6172;42.646;23.344;2023-04-30T07:47:03;11.57;;;7.50;;
12218;SDS011;6172;42.646;23.344;2023-04-30T07:49:30;8.77;;;6.40;;
12218;SDS011;6172;42.646;23.344;2023-04-30T07:51:57;7.77;;;5.77;;
12218;SDS011;6172;42.646;23.344;2023-04-30T07:54:25;10.17;;;6.67;;
12218;SDS011;6172;42.646;23.344;2023-04-30T07:56:51;11.50;;;6.83;;
12218;SDS011;6172;42.646;23.344;2023-04-30T07:59:18;12.10;;;5.73;;
12218;SDS011;6172;42.646;23.344;2023-04-30T08:01:49;11.60;;;5.80;;
12218;SDS011;6172;42.646;23.344;2023-04-30T08:04:16;7.40;;;5.20;;
12218;SDS011;6172;42.646;23.344;2023-04-30T08:06:43;12.40;;;5.40;;
12218;SDS011;6172;42.646;23.344;2023-04-30T08:09:10;9.63;;;5.37;;
12218;SDS011;6172;42.646;23.344;2023-04-30T08:11:37;8.97;;;5.37;;
12218;SDS011;6172;42.646;23.344;2023-04-30T08:14:04;6.63;;;4.83;;
12218;SDS011;6172;42.646;23.344;2023-04-30T08:16:32;9.80;;;4.90;;
12218;SDS011;6172;42.646;23.344;2023-04-30T08:19:00;7.70;;;4.73;;
12218;SDS011;6172;42.646;23.344;2023-04-30T08:21:28;4.77;;;3.93;;
12218;SDS011;6172;42.646;23.344;2023-04-30T08:23:55;6.27;;;4.13;;
12218;SDS011;6172;42.646;23.344;2023-04-30T08:26:23;5.30;;;3.80;;
12218;SDS011;6172;42.646;23.344;2023-04-30T08:28:50;4.13;;;3.27;;
12218;SDS011;6172;42.646;23.344;2023-04-30T08:31:17;6.07;;;3.00;;
12218;SDS011;6172;42.646;23.344;2023-04-30T08:33:44;4.55;;;2.78;;
12218;SDS011;6172;42.646;23.344;2023-04-30T08:36:12;4.78;;;2.63;;
12218;SDS011;6172;42.646;23.344;2023-04-30T08:38:39;5.28;;;2.65;;
12218;SDS011;6172;42.646;23.344;2023-04-30T08:41:08;3.83;;;2.53;;
12218;SDS011;6172;42.646;23.344;2023-04-30T08:43:37;3.92;;;2.88;;
12218;SDS011;6172;42.646;23.344;2023-04-30T08:46:04;4.53;;;2.42;;
12218;SDS011;6172;42.646;23.344;2023-04-30T08:48:32;4.85;;;2.92;;
12218;SDS011;6172;42.646;23.344;2023-04-30T08:50:59;5.87;;;3.07;;
12218;SDS011;6172;42.646;23.344;2023-04-30T08:53:28;3.80;;;2.70;;
12218;SDS011;6172;42.646;23.344;2023-04-30T08:55:55;4.45;;;2.92;;
12218;SDS011;6172;42.646;23.344;2023-04-30T08:58:22;7.00;;;2.50;;
12218;SDS011;6172;42.646;23.344;2023-04-30T09:00:49;3.55;;;2.63;;
12218;SDS011;6172;42.646;23.344;2023-04-30T09:03:16;2.72;;;2.17;;
12218;SDS011;6172;42.646;23.344;2023-04-30T09:05:43;3.25;;;2.42;;
12218;SDS011;6172;42.646;23.344;2023-04-30T09:08:10;2.88;;;2.35;;
12218;SDS011;6172;42.646;23.344;2023-04-30T09:10:44;4.78;;;2.80;;
12218;SDS011;6172;42.646;23.344;2023-04-30T09:13:11;4.53;;;2.95;;
12218;SDS011;6172;42.646;23.344;2023-04-30T09:15:38;3.30;;;2.28;;
12218;SDS011;6172;42.646;23.344;2023-04-30T09:18:09;1.95;;;1.75;;
12218;SDS011;6172;42.646;23.344;2023-04-30T09:20:52;2.40;;;1.95;;
12218;SDS011;6172;42.646;23.344;2023-04-30T09:23:20;2.75;;;2.00;;
12218;SDS011;6172;42.646;23.344;2023-04-30T09:25:48;2.97;;;2.67;;
12218;SDS011;6172;42.646;23.344;2023-04-30T09:28:15;2.53;;;2.13;;
12218;SDS011;6172;42.646;23.344;2023-04-30T09:30:44;2.38;;;2.17;;
12218;SDS011;6172;42.646;23.344;2023-04-30T09:33:11;2.33;;;2.10;;
12218;SDS011;6172;42.646;23.344;2023-04-30T09:35:38;2.97;;;2.08;;
12218;SDS011;6172;42.646;23.344;2023-04-30T09:38:05;3.28;;;2.08;;
12218;SDS011;6172;42.646;23.344;2023-04-30T09:40:36;2.20;;;2.10;;
12218;SDS011;6172;42.646;23.344;2023-04-30T09:43:05;2.75;;;2.38;;
12218;SDS011;6172;42.646;23.344;2023-04-30T09:45:39;2.63;;;1.98;;
12218;SDS011;6172;42.646;23.344;2023-04-30T09:48:11;2.42;;;2.08;;
12218;SDS011;6172;42.646;23.344;2023-04-30T09:50:41;2.85;;;2.20;;
12218;SDS011;6172;42.646;23.344;2023-04-30T09:53:09;2.15;;;2.05;;
12218;SDS011;6172;42.646;23.344;2023-04-30T09:55:40;2.97;;;1.67;;
12218;SDS011;6172;42.646;23.344;2023-04-30T09:58:10;3.83;;;2.10;;
12218;SDS011;6172;42.646;23.344;2023-04-30T10:00:38;2.78;;;1.55;;
12218;SDS011;6172;42.646;23.344;2023-04-30T10:03:06;3.70;;;2.03;;
12218;SDS011;6172;42.646;23.344;2023-04-30T10:05:35;2.47;;;2.10;;
12218;SDS011;6172;42.646;23.344;2023-04-30T10:08:06;4.28;;;2.28;;
12218;SDS011;6172;42.646;23.344;2023-04-30T10:10:39;2.03;;;1.92;;
12218;SDS011;6172;42.646;23.344;2023-04-30T10:13:11;2.20;;;2.00;;
12218;SDS011;6172;42.646;23.344;2023-04-30T10:15:44;2.42;;;2.17;;
12218;SDS011;6172;42.646;23.344;2023-04-30T10:18:16;1.60;;;1.50;;
12218;SDS011;6172;42.646;23.344;2023-04-30T10:20:45;4.25;;;1.45;;
12218;SDS011;6172;42.646;23.344;2023-04-30T10:23:14;1.67;;;1.58;;
12218;SDS011;6172;42.646;23.344;2023-04-30T10:25:41;3.35;;;2.20;;
12218;SDS011;6172;42.646;23.344;2023-04-30T10:28:11;2.35;;;2.10;;
12218;SDS011;6172;42.646;23.344;2023-04-30T10:30:40;2.13;;;1.80;;
12218;SDS011;6172;42.646;23.344;2023-04-30T10:33:09;2.30;;;2.10;;
12218;SDS011;6172;42.646;23.344;2023-04-30T10:35:45;8.10;;;2.35;;
12218;SDS011;6172;42.646;23.344;2023-04-30T10:38:17;10.30;;;3.10;;
12218;SDS011;6172;42.646;23.344;2023-04-30T10:40:49;6.38;;;2.40;;
12218;SDS011;6172;42.646;23.344;2023-04-30T10:43:17;4.97;;;3.05;;
12218;SDS011;6172;42.646;23.344;2023-04-30T10:45:46;8.68;;;4.00;;
12218;SDS011;6172;42.646;23.344;2023-04-30T10:48:14;3.20;;;1.93;;
12218;SDS011;6172;42.646;23.344;2023-04-30T10:50:48;5.03;;;2.60;;
12218;SDS011;6172;42.646;23.344;2023-04-30T10:53:17;2.87;;;2.10;;
12218;SDS011;6172;42.646;23.344;2023-04-30T10:55:47;4.83;;;2.90;;
12218;SDS011;6172;42.646;23.344;2023-04-30T10:58:25;3.63;;;3.20;;
12218;SDS011;6172;42.646;23.344;2023-04-30T11:00:59;4.03;;;3.30;;
12218;SDS011;6172;42.646;23.344;2023-04-30T11:03:28;6.70;;;3.73;;
12218;SDS011;6172;42.646;23.344;2023-04-30T11:05:56;4.33;;;3.30;;
12218;SDS011;6172;42.646;23.344;2023-04-30T11:08:33;3.00;;;2.70;;
12218;SDS011;6172;42.646;23.344;2023-04-30T11:11:01;3.50;;;3.20;;
12218;SDS011;6172;42.646;23.344;2023-04-30T11:13:38;3.45;;;3.15;;
12218;SDS011;6172;42.646;23.344;2023-04-30T11:16:07;4.97;;;3.45;;
12218;SDS011;6172;42.646;23.344;2023-04-30T11:18:34;2.88;;;2.67;;
12218;SDS011;6172;42.646;23.344;2023-04-30T11:21:07;3.28;;;2.97;;
12218;SDS011;6172;42.646;23.344;2023-04-30T11:23:35;3.20;;;2.90;;
12218;SDS011;6172;42.646;23.344;2023-04-30T11:26:02;3.38;;;3.08;;
12218;SDS011;6172;42.646;23.344;2023-04-30T11:28:31;3.22;;;2.45;;
12218;SDS011;6172;42.646;23.344;2023-04-30T11:31:01;2.28;;;2.08;;
12218;SDS011;6172;42.646;23.344;2023-04-30T11:33:28;3.47;;;1.95;;
12218;SDS011;6172;42.646;23.344;2023-04-30T11:35:57;3.10;;;2.22;;
12218;SDS011;6172;42.646;23.344;2023-04-30T11:38:26;15.50;;;2.88;;
12218;SDS011;6172;42.646;23.344;2023-04-30T11:40:55;3.72;;;2.83;;
12218;SDS011;6172;42.646;23.344;2023-04-30T11:43:23;3.42;;;2.63;;
12218;SDS011;6172;42.646;23.344;2023-04-30T11:45:58;4.55;;;1.85;;
12218;SDS011;6172;42.646;23.344;2023-04-30T11:48:33;5.32;;;2.53;;
12218;SDS011;6172;42.646;23.344;2023-04-30T11:51:02;4.30;;;1.98;;
12218;SDS011;6172;42.646;23.344;2023-04-30T11:53:30;1.70;;;1.30;;
12218;SDS011;6172;42.646;23.344;2023-04-30T11:56:01;3.28;;;1.40;;
12218;SDS011;6172;42.646;23.344;2023-04-30T11:58:32;2.15;;;1.40;;
12218;SDS011;6172;42.646;23.344;2023-04-30T12:00:59;1.27;;;1.20;;
12218;SDS011;6172;42.646;23.344;2023-04-30T12:03:28;2.40;;;1.60;;
12218;SDS011;6172;42.646;23.344;2023-04-30T12:05:55;4.57;;;1.80;;
12218;SDS011;6172;42.646;23.344;2023-04-30T12:08:21;3.40;;;1.67;;
12218;SDS011;6172;42.646;23.344;2023-04-30T12:10:48;2.03;;;1.90;;
12218;SDS011;6172;42.646;23.344;2023-04-30T12:13:15;2.58;;;1.90;;
12218;SDS011;6172;42.646;23.344;2023-04-30T12:15:56;2.17;;;1.98;;
12218;SDS011;6172;42.646;23.344;2023-04-30T12:18:24;2.63;;;1.70;;
12218;SDS011;6172;42.646;23.344;2023-04-30T12:20:52;1.83;;;1.70;;
12218;SDS011;6172;42.646;23.344;2023-04-30T12:23:20;1.60;;;1.50;;
12218;SDS011;6172;42.646;23.344;2023-04-30T12:25:47;2.30;;;1.50;;
12218;SDS011;6172;42.646;23.344;2023-04-30T12:28:13;3.37;;;1.77;;
12218;SDS011;6172;42.646;23.344;2023-04-30T12:30:41;2.33;;;1.53;;
12218;SDS011;6172;42.646;23.344;2023-04-30T12:33:08;2.37;;;1.70;;
12218;SDS011;6172;42.646;23.344;2023-04-30T12:35:36;2.23;;;1.73;;
12218;SDS011;6172;42.646;23.344;2023-04-30T12:38:08;1.97;;;1.87;;
12218;SDS011;6172;42.646;23.344;2023-04-30T12:40:35;2.40;;;2.20;;
12218;SDS011;6172;42.646;23.344;2023-04-30T12:43:03;3.87;;;1.70;;
12218;SDS011;6172;42.646;23.344;2023-04-30T12:45:43;1.60;;;1.50;;
12218;SDS011;6172;42.646;23.344;2023-04-30T12:48:12;1.97;;;1.87;;
12218;SDS011;6172;42.646;23.344;2023-04-30T12:50:40;2.27;;;1.50;;
12218;SDS011;6172;42.646;23.344;2023-04-30T12:53:08;2.60;;;1.33;;
12218;SDS011;6172;42.646;23.344;2023-04-30T12:55:35;1.70;;;1.60;;
12218;SDS011;6172;42.646;23.344;2023-04-30T12:58:06;1.80;;;1.20;;
12218;SDS011;6172;42.646;23.344;2023-04-30T13:00:43;1.37;;;1.27;;
12218;SDS011;6172;42.646;23.344;2023-04-30T13:03:13;4.23;;;1.70;;
12218;SDS011;6172;42.646;23.344;2023-04-30T13:05:40;1.40;;;1.30;;
12218;SDS011;6172;42.646;23.344;2023-04-30T13:08:13;2.10;;;1.30;;
12218;SDS011;6172;42.646;23.344;2023-04-30T13:10:40;1.90;;;1.40;;
12218;SDS011;6172;42.646;23.344;2023-04-30T13:13:07;1.93;;;1.40;;
12218;SDS011;6172;42.646;23.344;2023-04-30T13:15:34;2.17;;;1.60;;
12218;SDS011;6172;42.646;23.344;2023-04-30T13:18:01;1.40;;;1.30;;
12218;SDS011;6172;42.646;23.344;2023-04-30T13:20:28;3.40;;;1.60;;
12218;SDS011;6172;42.646;23.344;2023-04-30T13:22:56;1.90;;;1.40;;
12218;SDS011;6172;42.646;23.344;2023-04-30T13:25:24;2.70;;;1.60;;
12218;SDS011;6172;42.646;23.344;2023-04-30T13:27:51;2.33;;;1.70;;
12218;SDS011;6172;42.646;23.344;2023-04-30T13:30:18;1.83;;;1.70;;
12218;SDS011;6172;42.646;23.344;2023-04-30T13:32:46;2.43;;;1.43;;
12218;SDS011;6172;42.646;23.344;2023-04-30T13:35:13;1.93;;;1.57;;
12218;SDS011;6172;42.646;23.344;2023-04-30T13:37:39;5.50;;;1.73;;
12218;SDS011;6172;42.646;23.344;2023-04-30T13:40:07;1.70;;;1.50;;
12218;SDS011;6172;42.646;23.344;2023-04-30T13:42:37;2.73;;;1.87;;
12218;SDS011;6172;42.646;23.344;2023-04-30T13:45:04;3.03;;;2.13;;
12218;SDS011;6172;42.646;23.344;2023-04-30T13:47:35;2.47;;;1.90;;
12218;SDS011;6172;42.646;23.344;2023-04-30T13:50:02;1.63;;;1.53;;
12218;SDS011;6172;42.646;23.344;2023-04-30T13:52:32;2.93;;;1.90;;
12218;SDS011;6172;42.646;23.344;2023-04-30T13:54:59;1.63;;;1.53;;
12218;SDS011;6172;42.646;23.344;2023-04-30T13:57:26;3.17;;;1.93;;
12218;SDS011;6172;42.646;23.344;2023-04-30T13:59:55;1.60;;;1.50;;
12218;SDS011;6172;42.646;23.344;2023-04-30T14:02:22;2.10;;;1.60;;
12218;SDS011;6172;42.646;23.344;2023-04-30T14:04:49;1.50;;;1.40;;
12218;SDS011;6172;42.646;23.344;2023-04-30T14:07:19;3.78;;;1.52;;
12218;SDS011;6172;42.646;23.344;2023-04-30T14:09:46;1.88;;;1.77;;
12218;SDS011;6172;42.646;23.344;2023-04-30T14:12:14;1.58;;;1.48;;
12218;SDS011;6172;42.646;23.344;2023-04-30T14:14:42;1.58;;;1.40;;
12218;SDS011;6172;42.646;23.344;2023-04-30T14:17:10;2.05;;;1.60;;
12218;SDS011;6172;42.646;23.344;2023-04-30T14:19:37;1.70;;;1.03;;
12218;SDS011;6172;42.646;23.344;2023-04-30T14:22:04;1.40;;;1.17;;
12218;SDS011;6172;42.646;23.344;2023-04-30T14:24:30;3.42;;;1.40;;
12218;SDS011;6172;42.646;23.344;2023-04-30T14:26:58;1.88;;;1.40;;
12218;SDS011;6172;42.646;23.344;2023-04-30T14:29:25;2.55;;;1.65;;
12218;SDS011;6172;42.646;23.344;2023-04-30T14:31:52;1.73;;;1.20;;
12218;SDS011;6172;42.646;23.344;2023-04-30T14:34:20;2.05;;;1.60;;
12218;SDS011;6172;42.646;23.344;2023-04-30T14:36:48;4.82;;;2.38;;
12218;SDS011;6172;42.646;23.344;2023-04-30T14:39:15;2.78;;;1.85;;
12218;SDS011;6172;42.646;23.344;2023-04-30T14:41:42;2.00;;;1.63;;
12218;SDS011;6172;42.646;23.344;2023-04-30T14:44:09;1.63;;;1.45;;
12218;SDS011;6172;42.646;23.344;2023-04-30T14:46:36;5.53;;;3.00;;